Cut Bank, MT

4:32 AM MDT on October 20, 2014 (GMT -0600)
Cut Bank Municipal | Change Station
CLOSE
Current Station
Airport
Location: Cut Bank,
Elevation: 3855 ft
Nearby Weather Stations

Elev 3855 ft 48.61 °N, 112.38 °W | Updated 36 minutes ago

Clear
Clear
44 °F
Feels Like 40 °F
N
7
Wind Variable Wind from SSE

Today
High -- | Low -- °F
--% Chance of Precip.
Yesterday
High -- | Low -- °F
Precip. -- in
7:57 AM 6:30 PM
Waning Crescent, 11% visible
Pressure 29.79 in
Visibility 10.0 miles
Clouds Clear
Windchill 40 °F
Dew Point 29 °F
Humidity 55%
Rainfall 0.00 in
Snow Depth Not available.
UV 0 out of 12
Pollen .40 out of 12
Air Quality Not available.
Flu Activity No Activity
METAR KCTB 200956Z AUTO 15006KT 10SM CLR 07/M02 A2984 RMK AO2 SLP086 T00671017 $

More Conditions Fewer Conditions

Pressure 29.79 in
Visibility 10.0 miles
Clouds Clear
Windchill 40 °F
Dew Point 29 °F
Humidity 55%
Rainfall 0.00 in
Snow Depth Not available.
UV 0 out of 12
Pollen .40 out of 12
Air Quality Not available.
Flu Activity No Activity
METAR KCTB 200956Z AUTO 15006KT 10SM CLR 07/M02 A2984 RMK AO2 SLP086 T00671017 $

More Conditions Fewer Conditions

10-Day Weather Forecast

Almanac

Astronomy

Oct. 20, 2014 Rise Set
Actual Time 7:57 AM MDT 6:30 PM MDT
Civil Twilight 7:25 AM MDT 7:02 PM MDT
Nautical Twilight 6:48 AM MDT 7:38 PM MDT
Astronomical Twilight 6:12 AM MDT 8:14 PM MDT
Moon 4:34 AM MDT 5:07 PM MDT
Length of Visible Light 11h 37m
Length of Day
10h 33m
Waning Crescent, 11% of the Moon is Illuminated
Today
Waning Crescent
Oct 23
New
Oct 30
First Quarter
Nov 6
Full
Nov 14
Last Quarter

Today's Extremes

State Highs State Lows

Community

WunderPhotos

Upload Photos

1,763,331 photos uploaded!

Nearby

Snow Depth

Station Depth Elevation
Badger Pass 0 in 6900 ft
Pike Creek 0 in 5930 ft
Flattop Mountain 0 in 6300 ft
Emery Creek 0 in 4350 ft
Wood Creek 2 in 5960 ft

Earthquake Activity

City Distance Mag. Time & Date
No recent earthquake activity has been reported nearby.
Minimum magnitude displayed is 2.5.

Coastal Water Temperatures

Place Temperature
No Stations Reporting

Nearby Weather Stations